In Rescue
 
Open Full Screen Window  High Contrast Mode
August 09, 2020 7:31 PM EDT
Weather Information
Wind Direction
  ---
Wind Speed
  00 kt (0 mph)
Wind Gust
  00 kt (0 mph)
Altimeter
29.99 in
Visibility
10 SM
Temperature
26° C
79° F
Dewpoint
20° C
68° F
Humidity
70%
Sky Condition
Scattered @ 7,500 ft
Scattered @ 4,400 ft
VFR

METAR KBAX 092331Z AUTO 00000KT 10SM SCT044 SCT075 26/20 A2999 RMK AO2 T02550197

FAA Disclaimer: The data displayed is for advisory purposes only and is not to be used for flight planning or operations.